Austin, Texas
Traffic Map
Current Weather Conditions
Austin, Texas
Overcast
Overcast
15°
Feels Like: 15°
Wind Chill: 15° Ceiling: 2000
Heat Index: 15° Visibility: 10mi
Dew Point: 10° Wind: 9mph
Humidity: 72% Direction: 360° (N)
Pressure: 30.04in Gusts: 0mph
Raw Report DataKATT 281851Z AUTO 36008KT 10SM OVC020 15/10 A3004 RMK AO2 SLP169 T01500100
Traffic Incident Summary
Active as of:
Severity:
Category:
InformationThere was an issue retrieving the traffic information for this location. Please try a different location or try again shortly.
Advertisements
Track Severe Weather on mobile